Oglesby, Texas
Current Conditions -  °F | °C
As of 11:55 AM on Thursday 23 Oct 2014 (Local Time) from KPWG Reporting Station
Broken Clouds Broken Clouds  
Wind Chill: 73°   Ceiling: 8000
Heat Index: 73°   Visibility: 10mi
Dew Point: 55°   Wind: 5mph
Humidity: 53%   Direction: 160°SSE
Pressure: 30.17"   Gusts: NA
Location:  31.42°N, 97.51°W
Report Text: KPWG 231655Z AUTO 16004KT 10SM BKN080 23/13 A3017 RMK AO1
Loading
Personal Weather Stations






























Interactive Weather Map
Tropical Storm Tracking
New forecast layout! Learn more

10-Day Weather Forecast

Advertisements
Track Severe Weather on mobile